createdAt,value
2022-11-13T00:04:33.430Z,15.60
2022-11-13T00:09:36.308Z,12.87
2022-11-13T00:14:39.177Z,14.80
2022-11-13T00:19:42.562Z,15.90
2022-11-13T00:24:46.471Z,15.40
2022-11-13T00:29:49.398Z,16.90
2022-11-13T00:34:53.046Z,14.10
2022-11-13T00:39:59.620Z,14.97
2022-11-13T00:45:02.668Z,14.20
2022-11-13T00:50:06.038Z,15.47
2022-11-13T00:55:09.184Z,13.03
2022-11-13T01:00:12.815Z,16.03
2022-11-13T01:05:15.698Z,17.37
2022-11-13T01:10:18.773Z,16.30
2022-11-13T01:15:21.669Z,17.70
2022-11-13T01:20:26.014Z,12.17
2022-11-13T01:25:29.508Z,14.93
2022-11-13T01:30:32.788Z,15.63
2022-11-13T01:35:35.707Z,12.60
2022-11-13T01:40:48.391Z,14.33
2022-11-13T01:46:00.459Z,12.13
2022-11-13T01:51:09.707Z,12.47
2022-11-13T01:56:13.302Z,12.50
2022-11-13T02:01:16.045Z,12.67
2022-11-13T02:06:21.914Z,14.97
2022-11-13T02:11:25.663Z,15.43
2022-11-13T02:16:32.264Z,14.23
2022-11-13T02:21:53.537Z,15.20
2022-11-13T02:27:02.994Z,11.27
2022-11-13T02:32:06.010Z,12.97
2022-11-13T02:37:09.692Z,15.23
2022-11-13T02:42:12.515Z,12.70
2022-11-13T02:47:15.442Z,13.40
2022-11-13T02:52:18.152Z,15.40
2022-11-13T02:57:21.104Z,12.97
2022-11-13T03:02:24.499Z,13.30
2022-11-13T03:07:27.719Z,16.23
2022-11-13T03:12:30.836Z,12.70
2022-11-13T03:17:35.200Z,12.60
2022-11-13T03:22:38.087Z,15.77
2022-11-13T03:27:40.905Z,14.07
2022-11-13T03:32:43.873Z,17.33
2022-11-13T03:37:46.912Z,14.53
2022-11-13T03:42:49.768Z,14.97
2022-11-13T03:47:52.654Z,14.17
2022-11-13T03:52:55.570Z,13.20
2022-11-13T03:57:58.465Z,13.57
2022-11-13T04:03:01.582Z,14.93
2022-11-13T04:08:04.829Z,14.73
2022-11-13T04:13:07.957Z,15.50
2022-11-13T04:18:10.802Z,12.83
2022-11-13T04:23:15.997Z,10.73
2022-11-13T04:28:18.990Z,11.03
2022-11-13T04:33:22.185Z,10.67
2022-11-13T04:38:25.199Z,11.37
2022-11-13T04:43:28.303Z,11.80
2022-11-13T04:48:31.481Z,9.57
2022-11-13T04:53:34.798Z,9.80
2022-11-13T04:58:37.522Z,13.03
2022-11-13T05:03:40.411Z,11.80
2022-11-13T05:08:43.256Z,9.33
2022-11-13T05:13:46.828Z,10.87
2022-11-13T05:18:50.266Z,13.73
2022-11-13T05:23:53.133Z,12.57
2022-11-13T05:29:00.556Z,11.80
2022-11-13T05:34:06.319Z,11.97
2022-11-13T05:39:09.404Z,9.47
2022-11-13T05:44:12.332Z,10.70
2022-11-13T05:49:15.661Z,20.20
2022-11-13T05:54:18.536Z,17.67
2022-11-13T05:59:21.452Z,21.93
2022-11-13T06:04:24.326Z,17.63
2022-11-13T06:09:27.436Z,13.53
2022-11-13T06:14:30.245Z,15.63
2022-11-13T06:19:32.959Z,15.90
2022-11-13T06:24:36.429Z,15.60
2022-11-13T06:29:39.564Z,14.33
2022-11-13T06:34:42.766Z,15.20
2022-11-13T06:39:45.511Z,11.03
2022-11-13T06:44:48.421Z,13.27
2022-11-13T06:49:51.302Z,14.10
2022-11-13T06:54:54.230Z,11.93
2022-11-13T06:59:57.473Z,14.17
2022-11-13T07:05:00.577Z,11.23
2022-11-13T07:10:03.529Z,13.27
2022-11-13T07:15:06.999Z,9.33
2022-11-13T07:20:10.758Z,10.63
2022-11-13T07:25:14.109Z,8.77
2022-11-13T07:30:18.031Z,10.80
2022-11-13T07:35:21.397Z,9.77
2022-11-13T07:40:24.728Z,10.93
2022-11-13T07:45:28.786Z,11.03
2022-11-13T07:50:36.167Z,10.70
2022-11-13T07:55:39.104Z,10.30
2022-11-13T08:00:42.376Z,10.00
2022-11-13T08:05:45.668Z,10.47
2022-11-13T08:10:48.599Z,10.90
2022-11-13T08:15:51.502Z,12.17
2022-11-13T08:20:54.909Z,13.97
2022-11-13T08:25:58.508Z,14.07
2022-11-13T08:31:03.101Z,13.87
2022-11-13T08:36:06.793Z,12.33
2022-11-13T08:41:10.074Z,10.13
2022-11-13T08:46:12.914Z,11.00
2022-11-13T08:51:16.881Z,9.93
2022-11-13T08:56:20.058Z,10.50
2022-11-13T09:01:22.970Z,10.33
2022-11-13T09:06:26.120Z,14.20
2022-11-13T09:11:31.548Z,10.67
2022-11-13T09:16:34.557Z,11.50
2022-11-13T09:21:37.290Z,11.13
2022-11-13T09:26:40.211Z,11.93
2022-11-13T09:31:43.047Z,11.27
2022-11-13T09:36:46.654Z,10.73
2022-11-13T09:42:22.618Z,10.70
2022-11-13T09:47:37.516Z,13.57
2022-11-13T09:52:44.363Z,12.40
2022-11-13T09:58:06.956Z,13.57
2022-11-13T10:04:00.624Z,11.57
2022-11-13T10:09:28.507Z,12.37
2022-11-13T10:14:46.023Z,15.33
2022-11-13T10:20:16.195Z,12.53
2022-11-13T10:25:24.053Z,16.40
2022-11-13T10:30:29.690Z,12.37
2022-11-13T10:35:38.495Z,9.67
2022-11-13T10:40:41.561Z,12.57
2022-11-13T10:45:59.466Z,12.87
2022-11-13T10:51:29.240Z,11.60
2022-11-13T10:56:37.588Z,10.37
2022-11-13T11:01:42.671Z,10.23
2022-11-13T11:07:18.464Z,10.13
2022-11-13T11:12:30.179Z,10.87
2022-11-13T11:18:01.582Z,11.60
2022-11-13T11:23:31.152Z,11.60
2022-11-13T11:29:00.512Z,13.03
2022-11-13T11:34:16.217Z,11.30
2022-11-13T11:39:48.460Z,13.63
2022-11-13T11:45:04.917Z,12.50
2022-11-13T11:50:18.796Z,12.93
2022-11-13T11:56:04.805Z,13.27
2022-11-13T12:01:37.408Z,16.73
2022-11-13T12:07:00.342Z,11.40
2022-11-13T12:12:18.254Z,11.93
2022-11-13T12:17:56.034Z,13.23
2022-11-13T12:23:28.861Z,14.37
2022-11-13T12:29:06.450Z,15.53
2022-11-13T12:34:34.459Z,17.53
2022-11-13T12:40:00.399Z,15.53
2022-11-13T12:45:28.199Z,18.83
2022-11-13T12:50:33.019Z,19.23
2022-11-13T12:55:40.816Z,17.57
2022-11-13T13:00:58.948Z,17.43
2022-11-13T13:06:08.326Z,21.97
2022-11-13T13:11:49.056Z,16.87
2022-11-13T13:16:52.116Z,17.37
2022-11-13T13:21:56.129Z,15.90
2022-11-13T13:27:01.482Z,14.67
2022-11-13T13:32:27.254Z,14.97
2022-11-13T13:38:08.268Z,14.63
2022-11-13T13:43:41.346Z,24.87
2022-11-13T13:48:47.897Z,17.70
2022-11-13T13:53:51.557Z,19.63
2022-11-13T13:58:55.171Z,22.00
2022-11-13T14:04:18.849Z,21.80
2022-11-13T14:09:26.549Z,26.37
2022-11-13T14:14:31.100Z,23.80
2022-11-13T14:19:34.149Z,27.50
2022-11-13T14:24:53.667Z,27.97
2022-11-13T14:30:01.569Z,28.03
2022-11-13T14:35:08.066Z,27.50
2022-11-13T14:40:33.269Z,29.43
2022-11-13T14:45:36.382Z,37.03
2022-11-13T14:50:51.212Z,23.20
2022-11-13T14:56:00.541Z,18.03
2022-11-13T15:01:25.435Z,26.67
2022-11-13T15:06:39.865Z,24.90
2022-11-13T15:11:43.416Z,19.07
2022-11-13T15:16:48.755Z,27.10
2022-11-13T15:22:25.293Z,21.10
2022-11-13T15:27:19.263Z,26.70
2022-11-13T15:32:22.202Z,17.23
2022-11-13T15:37:25.748Z,15.47
2022-11-13T15:42:34.714Z,17.27
2022-11-13T15:47:37.955Z,27.47
2022-11-13T15:52:45.087Z,29.27
2022-11-13T15:57:48.785Z,25.80
2022-11-13T16:02:57.313Z,32.63
2022-11-13T16:08:00.230Z,38.07
2022-11-13T16:13:03.612Z,34.27
2022-11-13T16:18:15.824Z,30.53
2022-11-13T16:23:19.032Z,22.83
2022-11-13T16:28:22.010Z,21.13
2022-11-13T16:33:24.810Z,24.87
2022-11-13T16:38:28.476Z,22.07
2022-11-13T16:43:31.353Z,21.93
2022-11-13T16:48:34.447Z,28.13
2022-11-13T16:53:37.285Z,42.27
2022-11-13T16:58:40.268Z,30.73
2022-11-13T17:03:43.849Z,59.40
2022-11-13T17:08:51.067Z,49.73
2022-11-13T17:13:56.993Z,36.23
2022-11-13T17:19:00.335Z,45.87
2022-11-13T17:24:03.906Z,30.20
2022-11-13T17:29:07.379Z,31.47
2022-11-13T17:34:10.308Z,33.13
2022-11-13T17:39:13.236Z,30.07
2022-11-13T17:44:17.525Z,23.93
2022-11-13T17:49:21.076Z,23.60
2022-11-13T17:54:25.380Z,23.20
2022-11-13T17:59:28.562Z,27.17
2022-11-13T18:04:31.222Z,34.67
2022-11-13T18:09:35.246Z,28.07
2022-11-13T18:14:38.114Z,21.13
2022-11-13T18:19:40.959Z,21.17
2022-11-13T18:24:44.091Z,23.23
2022-11-13T18:29:47.065Z,34.60
2022-11-13T18:34:49.974Z,23.77
2022-11-13T18:39:53.377Z,32.53
2022-11-13T18:44:56.273Z,36.13
2022-11-13T18:49:59.240Z,26.77
2022-11-13T18:55:02.331Z,24.17
2022-11-13T19:00:05.857Z,35.10
2022-11-13T19:05:09.676Z,31.33
2022-11-13T19:10:12.898Z,35.77
2022-11-13T19:15:15.894Z,33.20
2022-11-13T19:20:18.947Z,30.43
2022-11-13T19:25:22.720Z,38.93
2022-11-13T19:30:25.737Z,24.47
2022-11-13T19:35:28.711Z,20.00
2022-11-13T19:40:31.824Z,26.27
2022-11-13T19:45:36.166Z,21.23
2022-11-13T19:50:39.483Z,23.30
2022-11-13T19:55:42.820Z,25.03
2022-11-13T20:00:45.712Z,17.80
2022-11-13T20:05:54.708Z,20.30
2022-11-13T20:11:10.456Z,16.20
2022-11-13T20:16:16.008Z,15.67
2022-11-13T20:21:30.200Z,13.30
2022-11-13T20:26:33.250Z,17.23
2022-11-13T20:31:36.329Z,15.53
2022-11-13T20:36:39.268Z,28.23
2022-11-13T20:41:42.761Z,14.93
2022-11-13T20:46:45.727Z,15.67
2022-11-13T20:51:50.634Z,14.83
2022-11-13T20:56:56.470Z,18.00
2022-11-13T21:01:59.613Z,17.27
2022-11-13T21:07:02.570Z,20.87
2022-11-13T21:12:05.870Z,17.50
2022-11-13T21:17:08.736Z,14.73
2022-11-13T21:22:11.614Z,13.30
2022-11-13T21:27:14.535Z,12.20
2022-11-13T21:32:17.451Z,13.27
2022-11-13T21:37:20.339Z,13.47
2022-11-13T21:42:23.191Z,12.73
2022-11-13T21:47:26.203Z,11.80
2022-11-13T21:52:29.525Z,16.73
2022-11-13T21:57:32.409Z,13.03
2022-11-13T22:02:35.475Z,14.07
2022-11-13T22:07:38.345Z,13.37
2022-11-13T22:12:41.281Z,12.20
2022-11-13T22:17:44.363Z,11.83
2022-11-13T22:22:47.255Z,14.10
2022-11-13T22:27:49.885Z,12.33
2022-11-13T22:32:52.759Z,10.90
2022-11-13T22:37:55.611Z,11.63
2022-11-13T22:42:59.603Z,9.33
2022-11-13T22:48:02.492Z,10.47
2022-11-13T22:53:05.347Z,10.13
2022-11-13T22:58:08.150Z,11.27
2022-11-13T23:03:11.072Z,12.67
2022-11-13T23:08:13.922Z,12.47
2022-11-13T23:13:16.957Z,11.60
2022-11-13T23:18:19.896Z,10.27
2022-11-13T23:23:22.772Z,8.70
2022-11-13T23:28:26.183Z,8.90
2022-11-13T23:33:29.259Z,8.57
2022-11-13T23:38:32.428Z,9.60
2022-11-13T23:48:58.483Z,9.50
2022-11-13T23:54:01.513Z,14.67
2022-11-13T23:59:04.443Z,10.77
